Flughafen Cuxhaven/Nordholz

Aus VATSIM Germany
Dies ist die bestätigte sowie die neueste Version dieser Seite.
Wechseln zu:Navigation, Suche
UnderCon icon.svg.pngDieser Artikel ist noch im Aufbau. Der Artikel kann daher unvollständig sein oder Fehler enthalten!


Nordholz Airport
ICAO / IATA ETMN / NDZ
Koordinaten N53°46′4″  E008°39′31″
Höhe 23 m / 74 ft
Wetter ETMN 171020Z 34009KT 9999 SCT019 SCT038 16/11 Q1015 BLU+BLU
Pisten
Platzfrequenzen
Nur für Flugsimulationszwecke!



Informationen für Piloten und Lotsen
Pilotenbriefing

Standard Operating Procedures (SOP)

Letters of Agreement (LoAs)

Vorlage:Chartbox